Time;durP1;ratioP1;P1;durP2;ratioP2;P2;SDS_P1;SDS_P2;PMS_P1;PMS_P2;Temp;Humidity;BMP_temperature;BMP_pressure;BME280_temperature;BME280_humidity;BME280_pressure;Samples;Min_cycle;Max_cycle;Signal;HPM_P1;HPM_P2
2022/05/21 00:02:35;;;;;;;11.05;4.03;;;;;;;;;;6262313;28;20053;-65
2022/05/21 00:05:36;;;;;;;10.53;3.67;;;;;;;;;;6260628;28;20126;-63
2022/05/21 00:08:36;;;;;;;11.83;4.00;;;;;;;;;;6262375;28;20052;-67
2022/05/21 00:11:38;;;;;;;11.17;3.80;;;;;;;;;;6255474;28;20855;-67
2022/05/21 00:14:39;;;;;;;13.50;4.13;;;;;;;;;;6259691;28;20080;-67
2022/05/21 00:17:40;;;;;;;7.83;3.87;;;;;;;;;;6261808;28;20049;-64
2022/05/21 00:20:49;;;;;;;6.97;3.60;;;;;;;;;;6261397;28;20127;-64
2022/05/21 00:23:50;;;;;;;9.52;3.58;;;;;;;;;;6255246;28;20076;-62
2022/05/21 00:26:51;;;;;;;10.60;3.60;;;;;;;;;;6260484;28;20060;-66
2022/05/21 00:29:52;;;;;;;8.23;3.60;;;;;;;;;;6254274;28;20432;-63
2022/05/21 00:32:52;;;;;;;9.47;3.87;;;;;;;;;;6259979;28;20211;-65
2022/05/21 00:35:53;;;;;;;8.53;3.40;;;;;;;;;;6262357;28;20053;-60
2022/05/21 00:38:54;;;;;;;11.38;3.50;;;;;;;;;;6259877;28;20049;-63
2022/05/21 00:41:55;;;;;;;8.37;3.47;;;;;;;;;;6260143;28;20041;-64
2022/05/21 00:44:55;;;;;;;9.30;3.93;;;;;;;;;;6254046;28;20080;-60
2022/05/21 00:47:57;;;;;;;11.47;3.80;;;;;;;;;;6255897;28;20090;-65
2022/05/21 00:50:58;;;;;;;7.53;3.17;;;;;;;;;;6262553;28;20053;-65
2022/05/21 00:54:02;;;;;;;14.30;3.53;;;;;;;;;;6263235;28;20056;-62
2022/05/21 00:57:14;;;;;;;8.13;3.20;;;;;;;;;;6262986;28;20080;-62
2022/05/21 01:00:22;;;;;;;7.25;3.33;;;;;;;;;;6267286;28;20488;-63
2022/05/21 01:03:23;;;;;;;7.35;3.70;;;;;;;;;;6264575;28;20140;-63
2022/05/21 01:06:24;;;;;;;10.95;4.07;;;;;;;;;;6260776;28;20048;-64
2022/05/21 01:09:25;;;;;;;10.30;3.90;;;;;;;;;;6264461;28;20127;-65
2022/05/21 01:12:29;;;;;;;9.93;3.73;;;;;;;;;;6256603;28;20053;-65
2022/05/21 01:15:34;;;;;;;8.15;3.90;;;;;;;;;;6267273;28;20057;-65
2022/05/21 01:18:35;;;;;;;8.40;3.90;;;;;;;;;;6267244;28;20471;-64
2022/05/21 01:21:37;;;;;;;10.33;3.67;;;;;;;;;;6267854;28;20405;-62
2022/05/21 01:24:38;;;;;;;6.47;4.20;;;;;;;;;;6265514;28;20102;-64
2022/05/21 01:27:39;;;;;;;6.80;3.60;;;;;;;;;;6263517;28;20471;-63
2022/05/21 01:30:43;;;;;;;8.07;3.42;;;;;;;;;;6263304;28;20133;-63
2022/05/21 01:33:44;;;;;;;6.13;3.55;;;;;;;;;;6265713;28;20037;-64
2022/05/21 01:36:46;;;;;;;9.70;3.45;;;;;;;;;;6267284;28;20049;-62
2022/05/21 01:39:46;;;;;;;5.68;2.88;;;;;;;;;;6264550;28;20045;-66
2022/05/21 01:46:06;;;;;;;8.57;3.42;;;;;;;;;;6264046;28;20479;-63
2022/05/21 01:49:07;;;;;;;7.43;3.83;;;;;;;;;;6260825;28;20063;-64
2022/05/21 01:52:10;;;;;;;6.93;3.33;;;;;;;;;;6264322;28;21954;-62
2022/05/21 01:55:10;;;;;;;8.45;3.15;;;;;;;;;;6262112;28;20080;-58
2022/05/21 01:58:12;;;;;;;8.07;3.20;;;;;;;;;;6263692;28;20049;-63
2022/05/21 02:01:13;;;;;;;5.07;3.20;;;;;;;;;;6261813;28;20489;-66
2022/05/21 02:04:14;;;;;;;9.33;3.30;;;;;;;;;;6258748;28;20059;-63
2022/05/21 02:07:15;;;;;;;7.20;3.60;;;;;;;;;;6257313;28;20084;-64
2022/05/21 02:10:16;;;;;;;9.13;3.73;;;;;;;;;;6264788;28;20049;-66
2022/05/21 02:13:20;;;;;;;6.33;3.73;;;;;;;;;;6263302;28;20156;-64
2022/05/21 02:16:20;;;;;;;8.77;3.72;;;;;;;;;;6264266;28;20060;-62
2022/05/21 02:19:21;;;;;;;11.57;4.63;;;;;;;;;;6261778;28;20030;-62
2022/05/21 02:22:22;;;;;;;9.93;3.97;;;;;;;;;;6265252;28;20144;-62
2022/05/21 02:25:23;;;;;;;6.80;3.80;;;;;;;;;;6258753;28;20071;-66
2022/05/21 02:28:24;;;;;;;7.72;3.80;;;;;;;;;;6262735;28;20045;-63
2022/05/21 02:31:25;;;;;;;7.47;3.70;;;;;;;;;;6258753;28;20635;-61
2022/05/21 02:34:25;;;;;;;6.93;3.73;;;;;;;;;;6261830;28;20121;-67
2022/05/21 02:40:45;;;;;;;7.85;4.53;;;;;;;;;;6261708;28;20076;-64
2022/05/21 02:43:46;;;;;;;6.10;3.93;;;;;;;;;;6255029;28;20103;-67
2022/05/21 02:46:47;;;;;;;8.10;4.20;;;;;;;;;;6254469;28;20477;-65
2022/05/21 02:49:48;;;;;;;8.65;4.38;;;;;;;;;;6261230;28;20079;-63
2022/05/21 02:52:48;;;;;;;8.93;4.97;;;;;;;;;;6264476;28;20132;-64
2022/05/21 02:55:52;;;;;;;10.57;4.83;;;;;;;;;;6259885;28;20135;-67
2022/05/21 02:58:53;;;;;;;9.15;5.10;;;;;;;;;;6261520;28;20040;-66
2022/05/21 03:01:53;;;;;;;10.57;5.17;;;;;;;;;;6263984;28;20400;-67
2022/05/21 03:04:54;;;;;;;11.20;5.57;;;;;;;;;;6262724;28;20150;-63
2022/05/21 03:07:55;;;;;;;8.87;5.13;;;;;;;;;;6266753;28;20136;-65
2022/05/21 03:10:56;;;;;;;9.17;5.40;;;;;;;;;;6264319;28;20156;-63
2022/05/21 03:13:57;;;;;;;9.30;5.30;;;;;;;;;;6261771;28;20051;-61
2022/05/21 03:16:59;;;;;;;13.50;6.20;;;;;;;;;;6262370;28;20049;-63
2022/05/21 03:20:00;;;;;;;8.77;5.53;;;;;;;;;;6262949;28;20053;-65
2022/05/21 03:23:01;;;;;;;12.40;6.07;;;;;;;;;;6262341;28;20416;-63
2022/05/21 03:26:01;;;;;;;11.67;6.10;;;;;;;;;;6260556;28;20057;-66
2022/05/21 03:29:02;;;;;;;11.47;5.63;;;;;;;;;;6260397;28;20052;-65
2022/05/21 03:32:04;;;;;;;11.77;6.60;;;;;;;;;;6260800;28;20045;-64
2022/05/21 03:35:05;;;;;;;;;;;;;;;;;;6262647;28;20492;-65
2022/05/21 03:38:05;;;;;;;11.73;5.53;;;;;;;;;;6265603;28;19921;-62
2022/05/21 03:41:06;;;;;;;11.10;5.83;;;;;;;;;;6256501;28;20083;-63
2022/05/21 03:44:08;;;;;;;17.17;5.77;;;;;;;;;;6257373;28;20049;-65
2022/05/21 03:47:09;;;;;;;11.48;5.70;;;;;;;;;;6260631;28;20492;-65
2022/05/21 03:50:14;;;;;;;11.33;6.03;;;;;;;;;;6265934;28;20057;-64
2022/05/21 03:53:16;;;;;;;11.82;5.65;;;;;;;;;;6266123;28;20329;-61
2022/05/21 03:56:18;;;;;;;12.15;5.60;;;;;;;;;;6255553;28;20053;-63
2022/05/21 03:59:19;;;;;;;11.30;5.78;;;;;;;;;;6261123;28;20365;-65
2022/05/21 04:02:20;;;;;;;11.55;5.43;;;;;;;;;;6262725;28;20390;-64
2022/05/21 04:05:20;;;;;;;10.40;5.27;;;;;;;;;;6263297;28;20144;-66
2022/05/21 04:08:22;;;;;;;10.90;5.97;;;;;;;;;;6258324;28;20045;-66
2022/05/21 04:11:23;;;;;;;10.30;5.18;;;;;;;;;;6259571;28;20055;-65
2022/05/21 04:14:28;;;;;;;14.17;5.63;;;;;;;;;;6259456;28;20065;-65
2022/05/21 04:17:28;;;;;;;11.52;4.65;;;;;;;;;;6258724;28;20365;-66
2022/05/21 04:20:29;;;;;;;10.40;5.00;;;;;;;;;;6259813;28;20048;-64
2022/05/21 04:23:30;;;;;;;10.27;5.10;;;;;;;;;;6262351;28;20076;-60
2022/05/21 04:26:31;;;;;;;10.63;5.20;;;;;;;;;;6253981;28;20057;-66
2022/05/21 04:29:31;;;;;;;10.33;4.93;;;;;;;;;;6260444;28;20049;-66
2022/05/21 04:32:32;;;;;;;12.13;5.53;;;;;;;;;;6258488;28;20053;-65
2022/05/21 04:38:53;;;;;;;11.73;4.93;;;;;;;;;;6262272;28;20479;-66
2022/05/21 04:41:54;;;;;;;8.90;4.85;;;;;;;;;;6253121;28;20480;-65
2022/05/21 04:44:54;;;;;;;10.70;5.23;;;;;;;;;;6258476;28;20111;-67
2022/05/21 04:47:55;;;;;;;17.90;5.73;;;;;;;;;;6258187;28;20131;-61
2022/05/21 04:51:00;;;;;;;14.30;5.50;;;;;;;;;;6259233;28;20049;-63
2022/05/21 04:54:01;;;;;;;14.48;5.72;;;;;;;;;;6262759;28;20057;-62
2022/05/21 04:57:01;;;;;;;10.60;5.37;;;;;;;;;;6261932;28;20053;-65
2022/05/21 05:00:05;;;;;;;17.00;5.63;;;;;;;;;;6260601;28;20142;-65
2022/05/21 05:03:14;;;;;;;13.80;5.82;;;;;;;;;;6253929;28;20048;-67
2022/05/21 05:06:14;;;;;;;13.75;6.20;;;;;;;;;;6259087;28;20145;-62
2022/05/21 05:09:19;;;;;;;11.23;6.33;;;;;;;;;;6263085;28;20041;-62
2022/05/21 05:12:19;;;;;;;13.38;6.30;;;;;;;;;;6252785;28;20041;-63
2022/05/21 05:15:20;;;;;;;12.27;6.63;;;;;;;;;;6256052;28;20060;-64
2022/05/21 05:18:21;;;;;;;12.50;7.10;;;;;;;;;;6260556;28;20083;-64
2022/05/21 05:21:22;;;;;;;13.63;7.03;;;;;;;;;;6260097;28;20072;-67
2022/05/21 05:24:23;;;;;;;12.77;7.35;;;;;;;;;;6255533;28;20086;-65
2022/05/21 05:27:23;;;;;;;18.53;7.63;;;;;;;;;;6258312;28;20053;-67
2022/05/21 05:30:24;;;;;;;18.00;8.10;;;;;;;;;;6259566;28;20086;-63
2022/05/21 05:33:26;;;;;;;16.03;10.63;;;;;;;;;;6255707;28;20049;-66
2022/05/21 05:36:28;;;;;;;14.75;8.63;;;;;;;;;;6255442;28;20313;-67
2022/05/21 05:39:30;;;;;;;16.15;8.32;;;;;;;;;;6266821;28;20076;-67
2022/05/21 05:42:31;;;;;;;;;;;;;;;;;;6245604;28;20046;-64
2022/05/21 05:45:31;;;;;;;13.75;7.82;;;;;;;;;;6261863;28;19920;-64
2022/05/21 05:48:32;;;;;;;15.23;7.43;;;;;;;;;;6258906;28;20476;-66
2022/05/21 05:51:33;;;;;;;17.33;8.57;;;;;;;;;;6262435;28;20045;-65
2022/05/21 05:54:33;;;;;;;14.27;7.80;;;;;;;;;;6262040;28;20182;-63
2022/05/21 05:57:34;;;;;;;15.23;8.20;;;;;;;;;;6264571;28;20049;-67
2022/05/21 06:00:35;;;;;;;14.93;8.00;;;;;;;;;;6263581;28;20558;-66
2022/05/21 06:03:36;;;;;;;16.53;7.90;;;;;;;;;;6261049;28;20053;-63
2022/05/21 06:06:37;;;;;;;14.65;7.95;;;;;;;;;;6262155;28;20041;-64
2022/05/21 06:09:38;;;;;;;11.37;7.57;;;;;;;;;;6256665;28;20081;-63
2022/05/21 06:12:39;;;;;;;13.53;7.73;;;;;;;;;;6261969;28;20049;-61
2022/05/21 06:15:40;;;;;;;12.63;7.73;;;;;;;;;;6260565;28;20049;-62
2022/05/21 06:18:42;;;;;;;11.63;7.30;;;;;;;;;;6264879;28;20094;-63
2022/05/21 06:21:43;;;;;;;;;;;;;;;;;;6265921;28;20091;-65
2022/05/21 06:24:43;;;;;;;11.13;6.45;;;;;;;;;;6266158;28;19928;-66
2022/05/21 06:27:46;;;;;;;11.55;6.25;;;;;;;;;;6266620;28;20080;-62
2022/05/21 06:30:46;;;;;;;11.93;6.18;;;;;;;;;;6261389;28;20471;-61
2022/05/21 06:33:47;;;;;;;13.00;6.27;;;;;;;;;;6260331;28;20041;-62
2022/05/21 06:36:47;;;;;;;9.27;5.60;;;;;;;;;;6266779;28;20438;-58
2022/05/21 06:39:48;;;;;;;10.53;5.40;;;;;;;;;;6257559;28;20061;-63
2022/05/21 06:42:49;;;;;;;8.77;5.20;;;;;;;;;;6244877;28;20049;-59
2022/05/21 06:45:49;;;;;;;9.23;4.70;;;;;;;;;;6262581;28;20056;-63
2022/05/21 06:48:50;;;;;;;9.68;4.82;;;;;;;;;;6262387;28;20128;-63
2022/05/21 06:51:52;;;;;;;10.35;4.50;;;;;;;;;;6259531;28;20060;-59
2022/05/21 06:54:53;;;;;;;8.30;4.88;;;;;;;;;;6266652;28;20484;-61
2022/05/21 06:57:54;;;;;;;7.77;3.80;;;;;;;;;;6266327;28;20463;-64
2022/05/21 07:00:54;;;;;;;8.07;3.20;;;;;;;;;;6268120;28;20052;-64
2022/05/21 07:03:56;;;;;;;8.00;2.80;;;;;;;;;;6257744;28;20488;-64
2022/05/21 07:10:19;;;;;;;6.03;2.60;;;;;;;;;;6260969;28;20489;-57
2022/05/21 07:13:22;;;;;;;7.18;2.50;;;;;;;;;;6269111;28;20058;-56
2022/05/21 07:16:23;;;;;;;5.07;2.40;;;;;;;;;;6267693;28;20048;-57
2022/05/21 07:19:24;;;;;;;11.48;2.60;;;;;;;;;;6266687;28;20135;-59
2022/05/21 07:22:24;;;;;;;6.27;2.27;;;;;;;;;;6247548;28;20041;-57
2022/05/21 07:25:28;;;;;;;7.07;2.57;;;;;;;;;;6266699;28;20136;-55
2022/05/21 07:28:29;;;;;;;6.20;1.90;;;;;;;;;;6268423;28;20106;-60
2022/05/21 07:31:29;;;;;;;5.97;1.58;;;;;;;;;;6268249;28;20124;-55
2022/05/21 07:34:30;;;;;;;5.33;1.70;;;;;;;;;;6253967;28;20577;-59
2022/05/21 07:37:30;;;;;;;6.60;1.50;;;;;;;;;;6268281;28;20128;-55
2022/05/21 07:40:31;;;;;;;5.85;1.33;;;;;;;;;;6267662;28;20041;-57
2022/05/21 07:43:33;;;;;;;6.45;1.42;;;;;;;;;;6248290;28;20168;-54
2022/05/21 07:46:34;;;;;;;4.65;1.20;;;;;;;;;;6264150;28;20072;-60
2022/05/21 07:49:34;;;;;;;5.35;1.92;;;;;;;;;;6267983;28;20163;-58
2022/05/21 07:52:36;;;;;;;4.47;1.27;;;;;;;;;;6267674;28;20507;-57
2022/05/21 07:55:36;;;;;;;5.55;1.17;;;;;;;;;;6266358;28;20475;-57
2022/05/21 07:58:42;;;;;;;3.43;1.17;;;;;;;;;;6267636;28;20550;-54
2022/05/21 08:01:43;;;;;;;5.13;1.20;;;;;;;;;;6258475;28;20050;-56
2022/05/21 08:04:45;;;;;;;4.37;1.00;;;;;;;;;;6256095;28;20552;-67
2022/05/21 08:07:50;;;;;;;5.55;0.95;;;;;;;;;;6261049;28;20071;-62
2022/05/21 08:10:51;;;;;;;3.38;1.00;;;;;;;;;;6244364;28;20052;-61
2022/05/21 08:13:52;;;;;;;13.05;1.58;;;;;;;;;;6253919;28;20131;-57
2022/05/21 08:16:53;;;;;;;9.70;2.00;;;;;;;;;;6259245;28;20134;-58
2022/05/21 08:19:53;;;;;;;8.55;1.40;;;;;;;;;;6256350;28;20512;-59
2022/05/21 08:29:35;;;;;;;3.10;1.40;;;;;;;;;;6261964;28;20113;-56
2022/05/21 08:32:35;;;;;;;6.20;1.23;;;;;;;;;;6262954;28;20051;-60
2022/05/21 08:35:38;;;;;;;5.93;1.40;;;;;;;;;;6264073;28;20044;-58
2022/05/21 08:38:41;;;;;;;8.63;1.30;;;;;;;;;;6264533;28;20563;-53
2022/05/21 08:41:57;;;;;;;7.47;1.38;;;;;;;;;;6261916;28;20050;-59
2022/05/21 08:45:18;;;;;;;7.40;1.40;;;;;;;;;;6254082;28;20052;-59
2022/05/21 08:48:20;;;;;;;5.72;1.50;;;;;;;;;;6260995;28;20072;-61
2022/05/21 08:51:23;;;;;;;11.32;1.60;;;;;;;;;;6262174;28;20056;-59
2022/05/21 08:54:29;;;;;;;4.07;1.40;;;;;;;;;;6258651;28;20041;-56
2022/05/21 08:57:41;;;;;;;5.40;1.48;;;;;;;;;;6261448;28;20049;-56
2022/05/21 09:00:45;;;;;;;7.22;1.40;;;;;;;;;;6259980;28;20450;-59
2022/05/21 09:03:48;;;;;;;9.20;1.70;;;;;;;;;;6259564;28;20049;-60
2022/05/21 09:07:04;;;;;;;4.85;1.13;;;;;;;;;;6261962;28;20045;-58
2022/05/21 09:10:34;;;;;;;3.40;1.38;;;;;;;;;;6263403;28;20044;-56
2022/05/21 09:14:12;;;;;;;6.18;1.40;;;;;;;;;;6263982;28;20068;-57
2022/05/21 09:17:20;;;;;;;3.63;1.23;;;;;;;;;;6257019;28;20052;-58
2022/05/21 09:20:23;;;;;;;11.15;1.90;;;;;;;;;;6262910;28;20053;-59
2022/05/21 09:23:24;;;;;;;6.07;1.60;;;;;;;;;;6258796;28;20079;-59
2022/05/21 09:26:28;;;;;;;5.23;1.60;;;;;;;;;;6246654;28;20060;-60
2022/05/21 09:29:33;;;;;;;4.38;1.45;;;;;;;;;;6254734;28;20110;-59
2022/05/21 09:32:35;;;;;;;3.05;1.60;;;;;;;;;;6264663;28;20072;-59
2022/05/21 09:35:54;;;;;;;8.32;1.50;;;;;;;;;;6261353;28;20053;-60
2022/05/21 09:38:55;;;;;;;5.40;1.50;;;;;;;;;;6263767;28;20535;-56
2022/05/21 09:45:40;;;;;;;7.40;1.67;;;;;;;;;;6258476;28;20049;-53
2022/05/21 09:48:41;;;;;;;3.20;1.30;;;;;;;;;;6256986;28;20245;-56
2022/05/21 09:51:52;;;;;;;3.40;1.27;;;;;;;;;;6246161;28;20140;-55
2022/05/21 09:54:53;;;;;;;12.63;1.63;;;;;;;;;;6251901;28;20053;-53
2022/05/21 09:58:06;;;;;;;3.20;1.40;;;;;;;;;;6246025;28;20103;-58
2022/05/21 10:01:11;;;;;;;7.75;1.77;;;;;;;;;;6265806;28;20055;-59
2022/05/21 10:04:24;;;;;;;4.80;1.50;;;;;;;;;;6261071;28;20099;-57
2022/05/21 10:11:00;;;;;;;4.20;1.50;;;;;;;;;;6268648;28;20077;-57
2022/05/21 10:14:05;;;;;;;4.10;1.35;;;;;;;;;;6262012;28;20182;-58
2022/05/21 10:17:12;;;;;;;5.15;1.30;;;;;;;;;;6259298;28;20091;-51
2022/05/21 10:20:20;;;;;;;4.03;1.33;;;;;;;;;;6258158;28;20056;-56
2022/05/21 10:23:40;;;;;;;4.05;1.42;;;;;;;;;;6258318;28;20048;-58
2022/05/21 10:26:53;;;;;;;3.60;1.40;;;;;;;;;;6253150;28;20095;-52
2022/05/21 10:30:09;;;;;;;5.47;1.42;;;;;;;;;;6254856;28;20454;-52
2022/05/21 10:33:10;;;;;;;5.53;1.63;;;;;;;;;;6255872;28;20053;-53
2022/05/21 10:36:25;;;;;;;4.97;1.80;;;;;;;;;;6253018;28;20142;-58
2022/05/21 10:39:49;;;;;;;6.63;1.70;;;;;;;;;;6254158;28;20049;-57
2022/05/21 10:43:08;;;;;;;4.38;1.67;;;;;;;;;;6254985;28;20096;-57
2022/05/21 10:46:30;;;;;;;3.72;1.35;;;;;;;;;;6251983;28;20067;-56
2022/05/21 10:49:54;;;;;;;;;;;;;;;;;;6253000;28;20126;-53
2022/05/21 10:53:19;;;;;;;3.38;1.40;;;;;;;;;;6250378;28;20273;-53
2022/05/21 10:56:41;;;;;;;6.78;1.70;;;;;;;;;;6250462;28;20053;-59
2022/05/21 10:59:45;;;;;;;;;;;;;;;;;;6255175;28;21654;-58
2022/05/21 11:03:01;;;;;;;4.50;1.80;;;;;;;;;;6252088;28;19944;-57
2022/05/21 11:06:15;;;;;;;3.97;1.40;;;;;;;;;;6251857;28;20057;-59
2022/05/21 11:09:23;;;;;;;4.22;1.45;;;;;;;;;;6252131;28;20073;-57
2022/05/21 11:12:34;;;;;;;4.10;1.80;;;;;;;;;;6252307;28;20484;-54
2022/05/21 11:16:00;;;;;;;9.77;2.23;;;;;;;;;;6254480;28;20143;-57
2022/05/21 11:19:13;;;;;;;5.10;1.75;;;;;;;;;;6252686;28;20159;-57
2022/05/21 11:22:24;;;;;;;5.25;1.48;;;;;;;;;;6254253;28;20143;-57
2022/05/21 11:25:46;;;;;;;6.57;2.00;;;;;;;;;;6253058;28;20057;-57
2022/05/21 11:29:07;;;;;;;3.30;1.80;;;;;;;;;;6248155;28;20148;-54
2022/05/21 11:39:14;;;;;;;6.75;1.90;;;;;;;;;;6250656;28;20110;-56
2022/05/21 11:42:18;;;;;;;5.32;1.88;;;;;;;;;;6251989;28;20180;-58
2022/05/21 11:45:23;;;;;;;10.15;2.00;;;;;;;;;;6251858;28;20049;-54
2022/05/21 11:48:28;;;;;;;4.78;1.85;;;;;;;;;;6252822;28;20701;-56
2022/05/21 11:51:29;;;;;;;6.07;2.00;;;;;;;;;;6252477;28;20053;-54
2022/05/21 11:54:45;;;;;;;5.05;1.85;;;;;;;;;;6250998;28;20491;-59
2022/05/21 11:57:50;;;;;;;3.83;1.80;;;;;;;;;;6251427;28;20056;-58
2022/05/21 12:00:51;;;;;;;4.55;1.70;;;;;;;;;;6251314;28;20049;-59
2022/05/21 12:03:53;;;;;;;3.93;1.80;;;;;;;;;;6251976;28;20060;-56
2022/05/21 12:06:56;;;;;;;4.93;1.90;;;;;;;;;;6253596;28;20083;-59
2022/05/21 12:10:04;;;;;;;4.47;1.90;;;;;;;;;;6250060;28;20068;-58
2022/05/21 12:13:16;;;;;;;6.00;1.77;;;;;;;;;;6250382;28;20135;-53
2022/05/21 12:16:16;;;;;;;;;;;;;;;;;;6250501;28;20061;-57
2022/05/21 12:20:04;;;;;;;3.35;1.48;;;;;;;;;;6250403;28;19936;-58
2022/05/21 12:23:04;;;;;;;3.83;1.80;;;;;;;;;;6246463;28;20060;-55
2022/05/21 12:26:20;;;;;;;5.30;1.80;;;;;;;;;;6244734;28;20057;-57
2022/05/21 12:29:28;;;;;;;4.72;1.80;;;;;;;;;;6251651;28;20045;-57
2022/05/21 12:32:32;;;;;;;3.88;1.88;;;;;;;;;;6251552;28;20553;-57
2022/05/21 12:35:47;;;;;;;6.07;1.92;;;;;;;;;;6247867;28;20045;-55
2022/05/21 12:38:48;;;;;;;3.67;2.05;;;;;;;;;;6250165;28;20077;-54
2022/05/21 12:42:04;;;;;;;5.13;1.85;;;;;;;;;;6251033;28;20075;-56
2022/05/21 12:45:06;;;;;;;4.03;1.80;;;;;;;;;;6251708;28;20083;-57
2022/05/21 12:48:35;;;;;;;3.45;1.88;;;;;;;;;;6252008;28;20080;-58
2022/05/21 12:51:48;;;;;;;4.88;3.00;;;;;;;;;;6243609;28;20605;-58
2022/05/21 12:54:49;;;;;;;8.38;2.50;;;;;;;;;;6250965;28;20053;-53
2022/05/21 12:57:50;;;;;;;4.47;2.20;;;;;;;;;;6251564;28;20075;-57
2022/05/21 13:00:55;;;;;;;3.80;2.20;;;;;;;;;;6252832;28;20048;-55
2022/05/21 13:03:57;;;;;;;5.32;1.70;;;;;;;;;;6249142;28;20183;-56
2022/05/21 13:07:05;;;;;;;3.92;1.88;;;;;;;;;;6252964;28;20132;-52
2022/05/21 13:10:26;;;;;;;3.50;1.70;;;;;;;;;;6251687;28;20488;-53
2022/05/21 13:13:31;;;;;;;3.72;1.73;;;;;;;;;;6251826;28;20053;-54
2022/05/21 13:16:32;;;;;;;3.42;1.60;;;;;;;;;;6250740;28;20491;-51
2022/05/21 13:19:55;;;;;;;9.10;2.23;;;;;;;;;;6249659;28;20057;-52
2022/05/21 13:23:05;;;;;;;2.92;1.67;;;;;;;;;;6251047;28;20171;-50
2022/05/21 13:26:05;;;;;;;5.93;1.80;;;;;;;;;;6250285;28;20583;-50
2022/05/21 13:29:21;;;;;;;6.37;1.90;;;;;;;;;;6252079;28;20059;-55
2022/05/21 13:32:31;;;;;;;5.55;2.00;;;;;;;;;;6251115;28;20083;-54
2022/05/21 13:35:35;;;;;;;7.05;1.90;;;;;;;;;;6249177;28;20057;-55
2022/05/21 13:38:38;;;;;;;7.68;2.00;;;;;;;;;;6250889;28;20049;-53
2022/05/21 13:41:40;;;;;;;3.17;1.80;;;;;;;;;;6250493;28;20092;-58
2022/05/21 13:44:44;;;;;;;4.60;1.67;;;;;;;;;;6249257;28;20049;-51
2022/05/21 13:47:52;;;;;;;5.40;1.90;;;;;;;;;;6252570;28;20076;-54
2022/05/21 13:50:53;;;;;;;8.52;1.70;;;;;;;;;;6251185;28;20065;-56
2022/05/21 13:53:56;;;;;;;3.13;1.53;;;;;;;;;;6250371;28;20057;-57
2022/05/21 13:57:07;;;;;;;4.18;1.83;;;;;;;;;;6249113;28;20060;-53
2022/05/21 14:00:28;;;;;;;7.05;1.90;;;;;;;;;;6253392;28;20112;-53
2022/05/21 14:03:45;;;;;;;3.80;1.90;;;;;;;;;;6255340;28;20135;-56
2022/05/21 14:06:46;;;;;;;4.05;1.67;;;;;;;;;;6256223;28;20147;-59
2022/05/21 14:09:48;;;;;;;7.10;1.97;;;;;;;;;;6253937;28;20049;-55
2022/05/21 14:12:55;;;;;;;4.32;1.80;;;;;;;;;;6254739;28;20072;-56
2022/05/21 14:15:59;;;;;;;5.53;1.77;;;;;;;;;;6249786;28;20423;-54
2022/05/21 14:19:18;;;;;;;4.93;1.75;;;;;;;;;;6254294;28;20148;-52
2022/05/21 14:22:21;;;;;;;3.85;2.05;;;;;;;;;;6256698;28;20102;-58
2022/05/21 14:25:33;;;;;;;5.93;1.92;;;;;;;;;;6253624;28;20060;-57
2022/05/21 14:28:34;;;;;;;5.00;1.80;;;;;;;;;;6255762;28;20076;-58
2022/05/21 14:31:35;;;;;;;5.32;1.90;;;;;;;;;;6255306;28;20157;-52
2022/05/21 14:34:35;;;;;;;5.13;1.70;;;;;;;;;;6253062;28;20052;-59
2022/05/21 14:37:36;;;;;;;5.23;1.90;;;;;;;;;;6250060;28;20059;-57
2022/05/21 14:40:57;;;;;;;5.37;2.10;;;;;;;;;;6253988;28;20049;-57
2022/05/21 14:44:00;;;;;;;5.32;1.88;;;;;;;;;;6250524;28;20072;-56
2022/05/21 14:53:47;;;;;;;3.78;1.50;;;;;;;;;;6250676;28;20095;-59
2022/05/21 14:56:48;;;;;;;7.63;1.90;;;;;;;;;;6251861;28;20453;-58
2022/05/21 14:59:49;;;;;;;7.23;1.70;;;;;;;;;;6253644;28;20047;-58
2022/05/21 15:02:50;;;;;;;5.90;2.90;;;;;;;;;;6253427;28;20542;-57
2022/05/21 15:05:50;;;;;;;3.30;2.00;;;;;;;;;;6250233;28;20049;-59
2022/05/21 15:08:55;;;;;;;7.40;1.83;;;;;;;;;;6251721;28;20131;-55
2022/05/21 15:11:56;;;;;;;4.50;1.70;;;;;;;;;;6247992;28;20095;-58
2022/05/21 15:14:57;;;;;;;5.07;1.70;;;;;;;;;;6249137;28;20867;-53
2022/05/21 15:17:58;;;;;;;4.18;1.70;;;;;;;;;;6253360;28;20063;-57
2022/05/21 15:20:59;;;;;;;9.10;1.73;;;;;;;;;;6251088;28;20053;-55
2022/05/21 15:24:00;;;;;;;5.73;1.57;;;;;;;;;;6249205;28;20061;-54
2022/05/21 15:27:01;;;;;;;;;;;;;;;;;;6251439;28;20103;-53
2022/05/21 15:30:03;;;;;;;4.65;1.85;;;;;;;;;;6252612;28;19924;-56
2022/05/21 15:33:04;;;;;;;3.38;1.60;;;;;;;;;;6252810;28;21086;-58
2022/05/21 15:36:05;;;;;;;4.97;1.77;;;;;;;;;;6250101;28;20057;-56
2022/05/21 15:39:07;;;;;;;5.10;1.92;;;;;;;;;;6253326;28;21561;-58
2022/05/21 15:42:10;;;;;;;10.07;2.33;;;;;;;;;;6251554;28;20110;-58
2022/05/21 15:45:11;;;;;;;3.10;1.45;;;;;;;;;;6251638;28;20045;-58
2022/05/21 15:48:12;;;;;;;5.90;1.70;;;;;;;;;;6250980;28;20669;-59
2022/05/21 15:51:15;;;;;;;;;;;;;;;;;;6250971;28;20160;-56
2022/05/21 15:54:19;;;;;;;4.78;1.40;;;;;;;;;;6247905;28;19936;-57
2022/05/21 15:57:20;;;;;;;3.30;1.60;;;;;;;;;;6249670;28;20076;-54
2022/05/21 16:00:21;;;;;;;4.00;1.47;;;;;;;;;;6248691;28;20045;-53
2022/05/21 16:03:22;;;;;;;2.83;1.40;;;;;;;;;;6247278;28;20488;-56
2022/05/21 16:06:24;;;;;;;4.18;1.75;;;;;;;;;;6249933;28;20059;-58
2022/05/21 16:09:24;;;;;;;4.50;1.40;;;;;;;;;;6252154;28;20515;-56
2022/05/21 16:12:26;;;;;;;11.02;5.43;;;;;;;;;;6251963;28;20063;-56
2022/05/21 16:15:38;;;;;;;5.68;1.77;;;;;;;;;;6254029;28;20057;-53
2022/05/21 16:18:40;;;;;;;9.45;4.65;;;;;;;;;;6256518;28;20083;-51
2022/05/21 16:21:41;;;;;;;5.95;2.67;;;;;;;;;;6255521;28;20223;-52
2022/05/21 16:24:41;;;;;;;2.75;1.30;;;;;;;;;;6251220;28;20083;-54
2022/05/21 16:27:42;;;;;;;6.65;1.20;;;;;;;;;;6253600;28;20061;-56
2022/05/21 16:30:44;;;;;;;4.13;1.60;;;;;;;;;;6253915;28;21320;-53
2022/05/21 16:33:45;;;;;;;6.43;2.70;;;;;;;;;;6250949;28;20068;-55
2022/05/21 16:36:45;;;;;;;5.28;1.50;;;;;;;;;;6251290;28;20809;-58
2022/05/21 16:39:46;;;;;;;5.18;1.50;;;;;;;;;;6249061;28;20059;-59
2022/05/21 16:42:47;;;;;;;3.77;1.47;;;;;;;;;;6249844;28;20117;-54
2022/05/21 16:45:48;;;;;;;7.47;2.05;;;;;;;;;;6249036;28;20106;-55
2022/05/21 16:48:49;;;;;;;2.70;1.50;;;;;;;;;;6250416;28;20488;-57
2022/05/21 16:51:49;;;;;;;5.43;1.50;;;;;;;;;;6249182;28;20045;-55
2022/05/21 16:54:51;;;;;;;3.30;1.60;;;;;;;;;;6247922;28;20042;-54
2022/05/21 16:57:51;;;;;;;4.85;1.50;;;;;;;;;;6246153;28;20116;-54
2022/05/21 17:00:52;;;;;;;4.85;1.50;;;;;;;;;;6248125;28;20055;-56
2022/05/21 17:03:53;;;;;;;4.72;1.50;;;;;;;;;;6245844;28;20053;-55
2022/05/21 17:06:53;;;;;;;5.40;1.30;;;;;;;;;;6246971;28;20049;-51
2022/05/21 17:09:55;;;;;;;4.03;1.30;;;;;;;;;;6247116;28;20080;-57
2022/05/21 17:12:56;;;;;;;5.57;1.50;;;;;;;;;;6246409;28;20052;-58
2022/05/21 17:15:57;;;;;;;4.10;1.70;;;;;;;;;;6249226;28;20549;-57
2022/05/21 17:18:57;;;;;;;4.70;1.47;;;;;;;;;;6250611;28;20076;-54
2022/05/21 17:22:03;;;;;;;4.67;1.60;;;;;;;;;;6249133;28;20487;-55
2022/05/21 17:25:05;;;;;;;3.63;1.40;;;;;;;;;;6245208;28;20163;-58
2022/05/21 17:31:25;;;;;;;5.00;1.45;;;;;;;;;;6247837;28;20139;-55
2022/05/21 17:34:26;;;;;;;2.77;1.40;;;;;;;;;;6248641;28;20048;-56
2022/05/21 17:37:26;;;;;;;3.33;1.48;;;;;;;;;;6250526;28;20057;-55
2022/05/21 17:40:28;;;;;;;4.73;1.60;;;;;;;;;;6251709;28;20056;-54
2022/05/21 17:43:29;;;;;;;3.08;1.40;;;;;;;;;;6251216;28;20061;-56
2022/05/21 17:46:30;;;;;;;3.27;1.50;;;;;;;;;;6251385;28;20056;-58
2022/05/21 17:49:31;;;;;;;5.82;1.70;;;;;;;;;;6252236;28;20052;-55
2022/05/21 17:52:32;;;;;;;3.47;1.60;;;;;;;;;;6253578;28;20484;-58
2022/05/21 17:55:33;;;;;;;5.93;1.53;;;;;;;;;;6249306;28;20519;-59
2022/05/21 17:58:34;;;;;;;6.93;1.60;;;;;;;;;;6250525;28;20309;-59
2022/05/21 18:01:35;;;;;;;3.92;1.67;;;;;;;;;;6252194;28;20048;-58
2022/05/21 18:04:37;;;;;;;3.97;1.80;;;;;;;;;;6279937;28;20049;-59
2022/05/21 18:07:37;;;;;;;4.47;1.60;;;;;;;;;;6248369;28;20064;-58
2022/05/21 18:10:43;;;;;;;4.68;1.80;;;;;;;;;;6249417;28;21226;-60
2022/05/21 18:13:44;;;;;;;6.80;1.73;;;;;;;;;;6247779;28;20060;-57
2022/05/21 18:20:04;;;;;;;4.78;1.90;;;;;;;;;;6250022;28;21385;-60
2022/05/21 18:23:04;;;;;;;4.60;1.80;;;;;;;;;;6250654;28;20167;-60
2022/05/21 18:26:05;;;;;;;2.10;1.40;;;;;;;;;;6249662;28;20049;-59
2022/05/21 18:29:07;;;;;;;7.27;2.27;;;;;;;;;;6249940;28;20526;-58
2022/05/21 18:32:07;;;;;;;;;;;;;;;;;;6252198;28;20064;-59
2022/05/21 18:35:08;;;;;;;6.28;1.75;;;;;;;;;;6248396;28;19935;-58
2022/05/21 18:38:09;;;;;;;5.68;1.80;;;;;;;;;;6251547;28;20146;-57
2022/05/21 18:41:13;;;;;;;3.17;1.65;;;;;;;;;;6249988;28;20057;-53
2022/05/21 18:44:14;;;;;;;4.00;1.70;;;;;;;;;;6247952;28;20080;-56
2022/05/21 18:47:15;;;;;;;4.18;1.92;;;;;;;;;;6250143;28;20500;-58
2022/05/21 18:50:16;;;;;;;4.22;1.63;;;;;;;;;;6248201;28;20056;-55
2022/05/21 18:53:16;;;;;;;4.13;1.73;;;;;;;;;;6246929;28;20055;-55
2022/05/21 18:56:20;;;;;;;3.97;1.80;;;;;;;;;;6250103;28;20055;-58
2022/05/21 18:59:20;;;;;;;5.30;2.25;;;;;;;;;;6249458;28;20140;-59
2022/05/21 19:02:21;;;;;;;6.30;2.65;;;;;;;;;;6250790;28;20114;-58
2022/05/21 19:05:21;;;;;;;4.30;2.42;;;;;;;;;;6250483;28;20041;-56
2022/05/21 19:08:23;;;;;;;5.07;2.13;;;;;;;;;;6251574;28;20053;-58
2022/05/21 19:11:24;;;;;;;6.93;1.90;;;;;;;;;;6250036;28;20052;-56